createdAt,value
2023-03-28T00:02:51.030Z,48.96
2023-03-28T00:07:54.502Z,49.20
2023-03-28T00:12:57.775Z,49.42
2023-03-28T00:18:01.464Z,49.66
2023-03-28T00:23:05.525Z,49.67
2023-03-28T00:28:09.655Z,49.84
2023-03-28T00:33:12.892Z,49.95
2023-03-28T00:38:16.023Z,50.09
2023-03-28T00:43:49.411Z,50.44
2023-03-28T00:48:56.766Z,50.49
2023-03-28T00:54:08.075Z,50.39
2023-03-28T00:59:19.426Z,50.15
2023-03-28T01:04:27.514Z,50.09
2023-03-28T01:09:31.838Z,49.97
2023-03-28T01:14:39.385Z,49.93
2023-03-28T01:20:28.928Z,49.89
2023-03-28T01:26:18.481Z,49.82
2023-03-28T01:31:31.099Z,49.76
2023-03-28T01:37:38.951Z,49.83
2023-03-28T01:42:53.496Z,49.96
2023-03-28T01:48:29.810Z,50.05
2023-03-28T01:53:40.144Z,50.13
2023-03-28T01:58:48.802Z,50.14
2023-03-28T02:04:20.733Z,50.28
2023-03-28T02:09:51.061Z,50.34
2023-03-28T02:15:14.065Z,50.44
2023-03-28T02:20:58.360Z,50.49
2023-03-28T02:26:12.644Z,50.60
2023-03-28T02:31:39.019Z,50.66
2023-03-28T02:37:20.034Z,50.73
2023-03-28T02:42:28.900Z,50.84
2023-03-28T02:48:03.788Z,51.00
2023-03-28T02:53:27.348Z,51.06
2023-03-28T02:59:06.886Z,51.06
2023-03-28T03:04:13.720Z,51.03
2023-03-28T03:09:17.928Z,50.90
2023-03-28T03:14:21.543Z,50.91
2023-03-28T03:19:26.539Z,50.79
2023-03-28T03:24:29.942Z,50.64
2023-03-28T03:29:38.432Z,50.65
2023-03-28T03:34:43.788Z,50.69
2023-03-28T03:39:47.382Z,50.78
2023-03-28T03:44:55.334Z,50.98
2023-03-28T03:50:00.256Z,51.28
2023-03-28T03:55:04.664Z,51.91
2023-03-28T04:00:12.334Z,52.28
2023-03-28T04:05:24.805Z,52.29
2023-03-28T04:10:39.288Z,52.45
2023-03-28T04:15:42.832Z,52.54
2023-03-28T04:21:02.020Z,53.21
2023-03-28T04:26:26.092Z,53.34
2023-03-28T04:31:41.778Z,56.16
2023-03-28T04:37:28.025Z,54.55
2023-03-28T04:42:32.853Z,54.79
2023-03-28T04:47:46.886Z,54.50
2023-03-28T04:52:54.992Z,54.67
2023-03-28T04:57:59.028Z,55.03
2023-03-28T05:03:06.829Z,55.11
2023-03-28T05:08:18.320Z,55.04
2023-03-28T05:13:22.198Z,55.34
2023-03-28T05:18:36.801Z,56.53
2023-03-28T05:23:40.746Z,56.14
2023-03-28T05:28:52.803Z,57.42
2023-03-28T05:33:56.555Z,56.59
2023-03-28T05:39:13.481Z,57.34
2023-03-28T05:44:18.773Z,57.44
2023-03-28T05:49:42.196Z,57.66
2023-03-28T05:54:51.724Z,57.16
2023-03-28T05:59:57.496Z,57.20
2023-03-28T06:05:00.993Z,57.41
2023-03-28T06:10:07.536Z,57.74
2023-03-28T06:15:11.855Z,58.23
2023-03-28T06:20:16.253Z,58.49
2023-03-28T06:25:21.973Z,58.25
2023-03-28T06:30:26.222Z,58.92
2023-03-28T06:35:30.074Z,59.32
2023-03-28T06:40:33.895Z,59.52
2023-03-28T06:45:37.204Z,59.21
2023-03-28T06:50:52.426Z,59.26
2023-03-28T06:55:58.244Z,59.66
2023-03-28T07:01:02.619Z,61.54
2023-03-28T07:06:28.375Z,59.97
2023-03-28T07:11:31.906Z,59.02
2023-03-28T07:16:36.627Z,57.99
2023-03-28T07:21:40.093Z,56.79
2023-03-28T07:26:44.785Z,56.45
2023-03-28T07:31:48.262Z,56.91
2023-03-28T07:36:52.438Z,57.92
2023-03-28T07:42:14.946Z,58.00
2023-03-28T07:47:20.546Z,58.37
2023-03-28T07:52:24.125Z,58.67
2023-03-28T07:57:28.024Z,58.40
2023-03-28T08:02:35.474Z,58.49
2023-03-28T08:07:42.471Z,57.99
2023-03-28T08:12:46.309Z,57.34
2023-03-28T08:17:49.751Z,57.91
2023-03-28T08:22:54.109Z,59.94
2023-03-28T08:28:18.242Z,60.97
2023-03-28T08:33:21.756Z,60.87
2023-03-28T08:38:25.254Z,60.50
2023-03-28T08:43:31.563Z,60.64
2023-03-28T08:48:43.693Z,60.16
2023-03-28T08:54:15.678Z,59.84
2023-03-28T08:59:57.110Z,59.27
2023-03-28T09:05:17.857Z,59.71
2023-03-28T09:10:46.169Z,59.30
2023-03-28T09:16:25.988Z,57.71
2023-03-28T09:22:12.393Z,55.40
2023-03-28T09:27:31.843Z,54.60
2023-03-28T09:32:39.785Z,53.63
2023-03-28T09:37:54.721Z,53.71
2023-03-28T09:43:01.149Z,53.72
2023-03-28T09:48:26.206Z,52.90
2023-03-28T09:53:33.390Z,52.39
2023-03-28T09:58:57.781Z,52.71
2023-03-28T10:04:29.550Z,52.38
2023-03-28T10:09:57.200Z,50.89
2023-03-28T10:15:01.304Z,49.75
2023-03-28T10:20:24.542Z,48.49
2023-03-28T10:25:43.337Z,48.46
2023-03-28T10:31:00.056Z,47.24
2023-03-28T10:36:12.035Z,47.22
2023-03-28T10:41:29.119Z,45.76
2023-03-28T10:46:54.346Z,45.51
2023-03-28T10:52:37.070Z,45.93
2023-03-28T10:57:54.183Z,46.58
2023-03-28T11:03:20.714Z,46.98
2023-03-28T11:08:33.758Z,47.24
2023-03-28T11:14:20.114Z,47.08
2023-03-28T11:19:53.905Z,45.26
2023-03-28T11:25:37.072Z,45.03
2023-03-28T11:31:20.885Z,43.62
2023-03-28T11:36:55.737Z,43.33
2023-03-28T11:42:04.923Z,42.19
2023-03-28T11:47:41.504Z,41.28
2023-03-28T11:53:34.967Z,40.45
2023-03-28T11:58:46.684Z,40.80
2023-03-28T12:03:59.221Z,40.20
2023-03-28T12:09:18.130Z,38.41
2023-03-28T12:14:27.678Z,38.19
2023-03-28T12:19:39.134Z,36.46
2023-03-28T12:24:54.047Z,35.56
2023-03-28T12:30:26.154Z,34.28
2023-03-28T12:35:39.965Z,33.47
2023-03-28T12:40:56.330Z,34.66
2023-03-28T12:46:05.688Z,35.26
2023-03-28T12:51:16.978Z,35.97
2023-03-28T12:56:22.157Z,35.54
2023-03-28T13:01:49.322Z,36.62
2023-03-28T13:07:37.265Z,38.35
2023-03-28T13:13:13.117Z,41.97
2023-03-28T13:18:22.260Z,45.79
2023-03-28T13:23:31.498Z,47.67
2023-03-28T13:28:51.788Z,46.47
2023-03-28T13:34:02.005Z,47.45
2023-03-28T13:39:09.570Z,46.44
2023-03-28T13:44:29.904Z,45.30
2023-03-28T13:49:52.622Z,43.94
2023-03-28T13:55:23.660Z,44.41
2023-03-28T14:00:29.058Z,47.72
2023-03-28T14:05:34.192Z,48.58
2023-03-28T14:10:40.932Z,53.57
2023-03-28T14:15:55.588Z,53.44
2023-03-28T14:21:00.613Z,53.29
2023-03-28T14:26:15.930Z,53.28
2023-03-28T14:31:38.719Z,53.19
2023-03-28T14:37:07.457Z,52.39
2023-03-28T14:42:17.848Z,52.30
2023-03-28T14:47:28.520Z,51.82
2023-03-28T14:52:41.196Z,51.20
2023-03-28T14:57:48.142Z,51.45
2023-03-28T15:02:54.935Z,51.31
2023-03-28T15:08:03.346Z,51.06
2023-03-28T15:13:43.639Z,50.28
2023-03-28T15:18:59.201Z,49.03
2023-03-28T15:24:04.411Z,48.91
2023-03-28T15:29:09.313Z,48.48
2023-03-28T15:34:20.725Z,48.95
2023-03-28T15:39:35.490Z,50.40
2023-03-28T15:44:41.557Z,52.52
2023-03-28T15:49:45.650Z,54.23
2023-03-28T15:54:52.647Z,54.87
2023-03-28T15:59:58.522Z,54.07
2023-03-28T16:05:10.707Z,53.11
2023-03-28T16:10:17.802Z,52.41
2023-03-28T16:15:48.061Z,51.71
2023-03-28T16:20:59.832Z,51.43
2023-03-28T16:26:04.616Z,52.37
2023-03-28T16:31:13.085Z,52.94
2023-03-28T16:36:16.474Z,52.72
2023-03-28T16:41:20.434Z,54.47
2023-03-28T16:46:23.865Z,54.36
2023-03-28T16:51:39.911Z,54.20
2023-03-28T16:56:43.941Z,54.86
2023-03-28T17:01:47.896Z,54.22
2023-03-28T17:06:53.049Z,54.46
2023-03-28T17:11:56.884Z,54.45
2023-03-28T17:17:00.373Z,54.27
2023-03-28T17:22:03.990Z,54.50
2023-03-28T17:27:07.423Z,55.18
2023-03-28T17:32:10.785Z,56.05
2023-03-28T17:37:14.370Z,55.92
2023-03-28T17:42:17.760Z,55.36
2023-03-28T17:47:21.167Z,54.69
2023-03-28T17:52:24.835Z,54.32
2023-03-28T17:57:28.366Z,53.67
2023-03-28T18:02:32.104Z,53.79
2023-03-28T18:07:43.521Z,53.98
2023-03-28T18:12:47.794Z,53.98
2023-03-28T18:17:51.460Z,53.96
2023-03-28T18:22:55.607Z,53.89
2023-03-28T18:27:58.869Z,53.91
2023-03-28T18:33:04.056Z,53.41
2023-03-28T18:38:07.418Z,53.04
2023-03-28T18:43:11.143Z,52.42
2023-03-28T18:48:18.697Z,52.14
2023-03-28T18:53:22.778Z,51.48
2023-03-28T18:58:29.123Z,52.67
2023-03-28T19:03:45.123Z,54.08
2023-03-28T19:08:48.817Z,54.60
2023-03-28T19:13:56.744Z,55.03
2023-03-28T19:19:07.511Z,55.47
2023-03-28T19:24:10.871Z,54.06
2023-03-28T19:29:27.599Z,52.83
2023-03-28T19:34:31.519Z,52.04
2023-03-28T19:39:35.295Z,51.81
2023-03-28T19:44:39.616Z,51.14
2023-03-28T19:49:43.247Z,50.50
2023-03-28T19:54:46.562Z,50.65
2023-03-28T19:59:49.953Z,50.32
2023-03-28T20:04:53.672Z,50.16
2023-03-28T20:09:57.141Z,49.95
2023-03-28T20:15:01.014Z,49.49
2023-03-28T20:20:05.250Z,49.88
2023-03-28T20:25:09.263Z,49.83
2023-03-28T20:30:12.942Z,49.82
2023-03-28T20:35:16.583Z,49.26
2023-03-28T20:40:21.353Z,49.30
2023-03-28T20:45:25.799Z,49.37
2023-03-28T20:50:39.044Z,49.45
2023-03-28T20:55:43.685Z,49.28
2023-03-28T21:00:47.918Z,49.26
2023-03-28T21:05:51.568Z,49.64
2023-03-28T21:10:54.963Z,49.82
2023-03-28T21:15:58.335Z,49.96
2023-03-28T21:21:02.316Z,49.74
2023-03-28T21:26:08.218Z,50.07
2023-03-28T21:31:26.065Z,49.88
2023-03-28T21:36:30.677Z,49.47
2023-03-28T21:41:38.088Z,48.99
2023-03-28T21:46:41.771Z,48.62
2023-03-28T21:51:45.991Z,48.41
2023-03-28T21:56:52.242Z,48.39
2023-03-28T22:01:56.104Z,48.32
2023-03-28T22:06:59.624Z,47.97
2023-03-28T22:12:05.921Z,47.81
2023-03-28T22:17:10.140Z,47.82
2023-03-28T22:22:13.736Z,47.25
2023-03-28T22:27:18.211Z,47.56
2023-03-28T22:32:21.865Z,46.84
2023-03-28T22:38:10.187Z,46.75
2023-03-28T22:43:13.783Z,46.68
2023-03-28T22:48:17.497Z,46.81
2023-03-28T22:53:23.867Z,46.22
2023-03-28T22:58:27.778Z,46.30
2023-03-28T23:03:32.711Z,46.35
2023-03-28T23:08:36.201Z,46.13
2023-03-28T23:13:39.601Z,46.27
2023-03-28T23:18:43.442Z,46.13
2023-03-28T23:23:47.657Z,45.92
2023-03-28T23:28:51.000Z,45.74
2023-03-28T23:33:54.156Z,45.00
2023-03-28T23:38:57.809Z,44.83
2023-03-28T23:44:01.327Z,45.21
2023-03-28T23:49:04.733Z,44.89
2023-03-28T23:54:08.091Z,44.53
2023-03-28T23:59:12.065Z,44.62
